Time;durP1;ratioP1;P1;durP2;ratioP2;P2;SDS_P1;SDS_P2;PMS_P1;PMS_P2;Temp;Humidity;BMP_temperature;BMP_pressure;BME280_temperature;BME280_humidity;BME280_pressure;Samples;Min_cycle;Max_cycle;Signal;HPM_P1;HPM_P2
2022/06/21 00:01:01;;;;;;;6.40;5.80;;;;;;;13.28;66.12;98878.41;2618031;54;20026;-69
2022/06/21 00:03:33;;;;;;;10.30;6.63;;;;;;;13.23;66.08;98866.78;2618318;54;20029;-67
2022/06/21 00:06:03;;;;;;;8.13;6.35;;;;;;;13.19;66.31;98870.84;2618305;54;20030;-69
2022/06/21 00:08:35;;;;;;;6.70;6.00;;;;;;;13.21;66.63;98868.78;2618532;54;20061;-69
2022/06/21 00:11:12;;;;;;;6.60;5.80;;;;;;;13.26;66.42;98871.66;2618395;54;20053;-69
2022/06/21 00:13:41;;;;;;;7.97;5.50;;;;;;;13.30;66.23;98870.22;2618341;54;20030;-69
2022/06/21 00:16:16;;;;;;;8.40;6.03;;;;;;;13.31;66.25;98858.59;2618460;54;20038;-68
2022/06/21 00:18:49;;;;;;;5.90;5.03;;;;;;;13.31;66.46;98861.25;2618615;54;20060;-68
2022/06/21 00:21:21;;;;;;;5.70;5.20;;;;;;;13.38;65.75;98865.50;2618144;54;20034;-69
2022/06/21 00:23:52;;;;;;;6.10;4.85;;;;;;;13.30;65.64;98871.03;2618201;54;20034;-69
2022/06/21 00:26:24;;;;;;;5.35;4.82;;;;;;;13.27;66.06;98878.63;2618067;54;20038;-70
2022/06/21 00:28:55;;;;;;;6.88;5.35;;;;;;;13.29;65.60;98879.22;2617570;54;20581;-70
2022/06/21 00:31:28;;;;;;;7.60;5.70;;;;;;;13.20;65.58;98878.59;2617659;47;20129;-70
2022/06/21 00:34:07;;;;;;;7.30;5.22;;;;;;;13.02;66.00;98875.75;2618176;54;20034;-70
2022/06/21 00:36:38;;;;;;;7.20;5.75;;;;;;;12.95;66.27;98874.97;2617414;47;20022;-70
2022/06/21 00:39:09;;;;;;;6.47;5.80;;;;;;;12.87;66.24;98873.34;2617998;54;20059;-70
2022/06/21 00:41:45;;;;;;;6.15;5.55;;;;;;;12.80;66.98;98868.03;2618381;39;20407;-68
2022/06/21 00:44:18;;;;;;;7.32;5.63;;;;;;;12.78;67.09;98863.97;2617355;47;20034;-65
2022/06/21 00:46:50;;;;;;;8.50;6.13;;;;;;;12.78;66.96;98867.44;2617358;54;20554;-67
2022/06/21 00:49:27;;;;;;;7.80;5.70;;;;;;;12.69;66.81;98868.66;2617195;47;20823;-67
2022/06/21 00:52:01;;;;;;;9.32;5.95;;;;;;;12.68;67.03;98868.84;2617725;54;20027;-66
2022/06/21 00:54:41;;;;;;;6.72;6.15;;;;;;;12.71;67.36;98874.56;2617902;54;20037;-65
2022/06/21 00:57:16;;;;;;;6.40;5.75;;;;;;;12.68;67.08;98880.28;2618249;39;20418;-66
2022/06/21 00:59:49;;;;;;;6.25;5.65;;;;;;;12.65;67.47;98872.72;2618226;54;20042;-66
2022/06/21 01:02:21;;;;;;;6.43;5.70;;;;;;;12.68;67.49;98867.03;2617464;47;20019;-65
2022/06/21 01:04:59;;;;;;;6.38;5.88;;;;;;;12.64;67.46;98865.78;2617756;54;20030;-67
2022/06/21 01:07:28;;;;;;;7.90;6.00;;;;;;;12.57;67.51;98864.97;2617801;47;20061;-66
2022/06/21 01:10:07;;;;;;;6.72;6.13;;;;;;;12.53;67.57;98869.91;2618715;54;20034;-69
2022/06/21 01:12:43;;;;;;;7.25;5.78;;;;;;;12.50;68.21;98867.63;2618516;54;20037;-66
2022/06/21 01:15:17;;;;;;;6.75;5.80;;;;;;;12.49;68.12;98862.53;2618190;46;20557;-65
2022/06/21 01:17:50;;;;;;;7.28;6.55;;;;;;;12.45;68.43;98861.28;2618580;54;20031;-65
2022/06/21 01:20:25;;;;;;;7.75;6.57;;;;;;;12.36;68.44;98864.13;2618474;54;20026;-66
2022/06/21 01:23:02;;;;;;;8.15;6.47;;;;;;;12.37;69.04;98863.16;2618905;39;20458;-66
2022/06/21 01:25:45;;;;;;;9.20;6.88;;;;;;;12.38;68.68;98861.31;2618703;54;20027;-66
2022/06/21 01:28:18;;;;;;;8.70;7.03;;;;;;;12.28;68.77;98861.69;2618517;54;20034;-66
2022/06/21 01:30:52;;;;;;;7.97;7.20;;;;;;;12.22;69.40;98859.03;2618673;54;20572;-65
2022/06/21 01:33:30;;;;;;;7.50;6.68;;;;;;;12.18;69.11;98841.91;2618477;54;20137;-66
2022/06/21 01:36:03;;;;;;;7.47;6.78;;;;;;;12.11;69.63;98839.25;2618845;39;20453;-67
2022/06/21 01:38:39;;;;;;;7.75;6.97;;;;;;;12.20;69.49;98837.22;2618373;54;20035;-68
2022/06/21 01:41:16;;;;;;;8.43;7.07;;;;;;;12.20;69.72;98835.38;2618490;54;20035;-67
2022/06/21 01:43:51;;;;;;;7.97;7.28;;;;;;;12.22;69.68;98836.00;2619004;39;20414;-67
2022/06/21 01:46:26;;;;;;;9.15;6.90;;;;;;;12.32;69.20;98851.50;2618490;54;20026;-66
2022/06/21 01:49:01;;;;;;;10.13;7.63;;;;;;;12.35;69.42;98845.81;2618503;54;20585;-67
2022/06/21 01:51:35;;;;;;;10.20;7.28;;;;;;;12.36;69.09;98850.06;2617905;46;20045;-66
2022/06/21 01:54:08;;;;;;;8.55;7.03;;;;;;;12.26;69.25;98847.03;2618960;39;20430;-68
2022/06/21 01:56:41;;;;;;;8.23;6.78;;;;;;;12.16;69.28;98839.44;2618448;47;20018;-67
2022/06/21 01:59:19;;;;;;;9.07;6.90;;;;;;;12.19;69.40;98836.41;2619130;54;20039;-67
2022/06/21 02:01:54;;;;;;;7.45;6.65;;;;;;;12.14;69.09;98846.78;2619155;54;20034;-67
2022/06/21 02:04:26;;;;;;;8.98;6.70;;;;;;;12.08;69.25;98848.44;2625472;54;20033;-67
2022/06/21 02:06:59;;;;;;;8.23;7.13;;;;;;;11.99;69.48;98832.91;2624734;47;20030;-67
2022/06/21 02:09:34;;;;;;;9.35;7.28;;;;;;;11.89;69.83;98826.16;2624687;54;20041;-67
2022/06/21 02:12:07;;;;;;;8.10;7.30;;;;;;;11.91;69.75;98818.00;2621950;54;20035;-69
2022/06/21 02:14:42;;;;;;;8.85;7.05;;;;;;;11.92;70.02;98813.53;2620271;46;20031;-66
2022/06/21 02:17:18;;;;;;;8.07;7.28;;;;;;;11.92;70.18;98819.66;2620000;54;20041;-68
2022/06/21 02:19:54;;;;;;;8.13;6.47;;;;;;;12.03;70.20;98831.47;2619807;47;20046;-67
2022/06/21 02:22:25;;;;;;;7.20;6.50;;;;;;;12.12;70.04;98833.75;2618289;47;20044;-68
2022/06/21 02:24:57;;;;;;;7.15;6.20;;;;;;;12.08;69.08;98829.88;2618465;54;20034;-66
2022/06/21 02:27:33;;;;;;;8.60;7.03;;;;;;;11.98;69.62;98824.13;2618442;54;20038;-67
2022/06/21 02:30:16;;;;;;;8.20;7.50;;;;;;;11.83;69.98;98826.94;2618521;54;20038;-67
2022/06/21 02:32:46;;;;;;;16.43;7.80;;;;;;;11.82;70.20;98830.59;2618511;54;20026;-68
2022/06/21 02:35:23;;;;;;;10.00;7.50;;;;;;;11.81;70.35;98823.66;2618246;54;20053;-66
2022/06/21 02:37:55;;;;;;;8.18;7.18;;;;;;;11.72;70.26;98818.75;2618347;54;20038;-66
2022/06/21 02:40:29;;;;;;;8.80;7.78;;;;;;;11.87;70.11;98814.94;2618442;54;20568;-68
2022/06/21 02:43:05;;;;;;;8.95;8.05;;;;;;;11.97;70.27;98814.56;2617450;54;20046;-68
2022/06/21 02:45:44;;;;;;;8.93;8.00;;;;;;;12.12;69.73;98815.22;2618165;54;20038;-67
2022/06/21 02:48:19;;;;;;;9.82;8.23;;;;;;;12.10;69.92;98822.53;2618176;54;20555;-67
2022/06/21 02:50:55;;;;;;;8.63;7.82;;;;;;;12.05;69.93;98821.50;2618064;54;20038;-67
2022/06/21 02:53:31;;;;;;;7.97;7.05;;;;;;;12.15;69.77;98808.66;2618068;54;20078;-68
2022/06/21 02:56:07;;;;;;;7.43;6.72;;;;;;;12.05;69.03;98810.91;2618621;39;20462;-68
2022/06/21 02:58:40;;;;;;;9.05;8.15;;;;;;;11.99;69.50;98801.09;2618166;54;20127;-67
2022/06/21 03:01:17;;;;;;;;;;;;;;;12.02;69.31;98798.06;2618360;54;20033;-66
2022/06/21 03:03:48;;;;;;;8.27;7.38;;;;;;;12.04;69.50;98796.84;2617890;54;19946;-66
2022/06/21 03:06:20;;;;;;;8.45;7.20;;;;;;;12.12;69.59;98794.00;2618226;54;20546;-66
2022/06/21 03:08:53;;;;;;;8.20;6.97;;;;;;;12.06;68.86;98791.34;2617857;54;20030;-66
2022/06/21 03:11:24;;;;;;;;;;;;;;;11.88;68.90;98781.34;2618532;54;20053;-67
2022/06/21 03:13:54;;;;;;;7.78;6.88;;;;;;;11.82;69.56;98777.63;2618217;54;19979;-66
2022/06/21 03:16:27;;;;;;;8.40;7.63;;;;;;;11.73;69.45;98764.78;2618199;54;20026;-70
2022/06/21 03:19:00;;;;;;;8.00;7.05;;;;;;;11.64;70.15;98761.50;2618420;54;20030;-70
2022/06/21 03:21:33;;;;;;;8.02;7.13;;;;;;;11.63;70.22;98771.28;2618026;47;20057;-69
2022/06/21 03:24:09;;;;;;;7.53;6.18;;;;;;;11.77;70.51;98779.25;2618337;54;20033;-72
2022/06/21 03:26:41;;;;;;;9.95;7.13;;;;;;;11.86;69.64;98762.16;2617926;47;20034;-70
2022/06/21 03:29:11;;;;;;;11.10;6.18;;;;;;;11.99;69.48;98761.38;2618110;54;20033;-68
2022/06/21 03:31:48;;;;;;;7.72;6.95;;;;;;;12.01;68.62;98760.16;2618319;54;20030;-69
2022/06/21 03:34:20;;;;;;;9.75;7.82;;;;;;;11.94;68.83;98755.88;2617604;54;20038;-69
2022/06/21 03:36:51;;;;;;;8.10;7.30;;;;;;;11.87;68.85;98753.19;2617792;47;20034;-68
2022/06/21 03:41:42;;;;;;;8.43;6.43;;;;;;;11.80;68.90;98758.47;2618477;54;20034;-69
2022/06/21 03:42:14;;;;;;;8.70;7.80;;;;;;;11.92;69.30;98757.88;2617728;47;20041;-68
2022/06/21 03:44:47;;;;;;;7.32;6.60;;;;;;;11.99;68.98;98759.53;2618529;54;20030;-69
2022/06/21 03:47:29;;;;;;;7.93;7.10;;;;;;;12.13;68.70;98766.50;2617507;54;20038;-65
2022/06/21 03:50:03;;;;;;;9.00;6.85;;;;;;;12.28;68.01;98763.63;2618759;54;20019;-65
2022/06/21 03:52:44;;;;;;;8.40;7.53;;;;;;;12.32;67.51;98756.88;2618726;54;20545;-65
2022/06/21 03:55:29;;;;;;;11.90;7.43;;;;;;;12.31;67.31;98749.97;2619046;54;20029;-65
2022/06/21 03:58:05;;;;;;;11.30;10.07;;;;;;;12.24;68.04;98750.97;2619105;54;20038;-65
2022/06/21 04:00:43;;;;;;;8.10;7.20;;;;;;;12.30;68.08;98743.03;2618670;54;20053;-65
2022/06/21 04:03:21;;;;;;;9.68;7.65;;;;;;;12.19;67.58;98742.84;2617832;54;20530;-65
2022/06/21 04:05:56;;;;;;;12.02;8.27;;;;;;;12.13;68.08;98749.78;2618532;54;20034;-65
2022/06/21 04:08:32;;;;;;;10.95;8.18;;;;;;;12.25;67.99;98752.63;2618345;54;20030;-66
2022/06/21 04:11:09;;;;;;;9.80;8.27;;;;;;;12.30;67.96;98740.38;2618399;54;20031;-64
2022/06/21 04:13:44;;;;;;;8.57;7.65;;;;;;;12.30;67.58;98735.09;2618766;39;20441;-65
2022/06/21 04:16:19;;;;;;;9.23;8.32;;;;;;;12.34;67.65;98730.19;2618411;54;20038;-65
2022/06/21 04:18:56;;;;;;;9.85;8.95;;;;;;;12.36;67.67;98728.94;2618488;54;20162;-67
2022/06/21 04:21:34;;;;;;;11.52;10.23;;;;;;;12.42;67.59;98726.53;2618428;39;20410;-66
2022/06/21 04:24:12;;;;;;;10.85;9.75;;;;;;;12.40;67.44;98730.16;2618106;54;20034;-66
2022/06/21 04:26:49;;;;;;;9.75;8.68;;;;;;;12.38;67.37;98728.75;2618490;39;20438;-65
2022/06/21 04:29:26;;;;;;;11.50;10.30;;;;;;;12.38;67.98;98726.09;2618332;54;20030;-65
2022/06/21 04:32:01;;;;;;;11.85;9.18;;;;;;;12.46;67.80;98728.53;2618180;54;20549;-69
2022/06/21 04:34:40;;;;;;;11.10;8.60;;;;;;;12.58;67.81;98734.03;2618292;54;20038;-65
2022/06/21 04:37:15;;;;;;;9.45;8.45;;;;;;;12.66;67.53;98727.69;2618215;54;20560;-65
2022/06/21 04:39:53;;;;;;;15.07;8.40;;;;;;;12.78;66.82;98731.34;2619023;39;20492;-64
2022/06/21 04:42:28;;;;;;;9.00;7.00;;;;;;;12.89;66.65;98725.38;2618310;54;20038;-65
2022/06/21 04:45:05;;;;;;;7.90;7.10;;;;;;;13.10;66.39;98730.41;2623500;54;20037;-67
2022/06/21 04:47:41;;;;;;;8.65;6.38;;;;;;;13.28;65.81;98735.06;2623750;54;20054;-66
2022/06/21 04:50:23;;;;;;;7.78;6.35;;;;;;;13.44;64.77;98736.41;2624762;46;20057;-65
2022/06/21 04:53:00;;;;;;;7.85;6.38;;;;;;;13.54;64.32;98736.75;2624069;54;20027;-66
2022/06/21 04:55:40;;;;;;;7.28;6.57;;;;;;;13.55;63.43;98733.09;2623892;54;20811;-66
2022/06/21 04:58:12;;;;;;;6.82;6.18;;;;;;;13.49;63.49;98723.31;2618239;54;20039;-65
2022/06/21 05:00:41;;;;;;;6.57;5.97;;;;;;;13.58;64.01;98729.97;2618340;54;20050;-66
2022/06/21 05:03:28;;;;;;;7.88;5.93;;;;;;;13.73;63.10;98726.22;2618067;54;20034;-66
2022/06/21 05:06:01;;;;;;;7.90;6.43;;;;;;;13.82;62.96;98728.41;2618191;54;20031;-66
2022/06/21 05:08:31;;;;;;;7.97;6.25;;;;;;;13.95;63.38;98732.81;2618281;54;20034;-66
2022/06/21 05:11:04;;;;;;;6.32;5.72;;;;;;;14.01;62.76;98720.50;2618275;54;20026;-66
2022/06/21 05:13:39;;;;;;;7.40;5.60;;;;;;;14.02;61.94;98720.28;2617996;54;20030;-66
2022/06/21 05:16:18;;;;;;;6.47;5.55;;;;;;;14.08;62.52;98719.44;2618213;54;20558;-66
2022/06/21 05:18:53;;;;;;;7.70;6.05;;;;;;;14.35;62.02;98716.53;2618195;54;20038;-66
2022/06/21 05:21:33;;;;;;;6.32;5.72;;;;;;;14.59;61.28;98717.56;2618124;54;20035;-66
2022/06/21 05:24:05;;;;;;;5.68;5.18;;;;;;;14.71;60.72;98710.47;2618158;54;20546;-66
2022/06/21 05:26:40;;;;;;;6.47;5.88;;;;;;;14.70;60.85;98702.72;2618184;54;20038;-66
2022/06/21 05:29:18;;;;;;;6.35;5.53;;;;;;;14.88;61.02;98717.88;2620779;54;20030;-65
2022/06/21 05:31:50;;;;;;;5.95;5.13;;;;;;;15.01;60.33;98720.38;2621599;54;20027;-66
2022/06/21 05:34:24;;;;;;;6.40;5.10;;;;;;;15.14;60.12;98712.22;2617123;54;20522;-66
2022/06/21 05:37:01;;;;;;;6.10;5.60;;;;;;;15.16;59.90;98712.81;2617870;47;20039;-66
2022/06/21 05:39:35;;;;;;;6.97;5.30;;;;;;;15.24;60.12;98715.16;2618419;54;20050;-66
2022/06/21 05:42:07;;;;;;;7.25;4.50;;;;;;;15.30;59.33;98708.91;2618388;54;20537;-66
2022/06/21 05:44:45;;;;;;;8.35;5.22;;;;;;;15.33;59.96;98711.13;2618498;54;20556;-64
2022/06/21 05:47:21;;;;;;;6.57;5.93;;;;;;;15.53;59.57;98713.53;2618365;54;20530;-64
2022/06/21 05:49:52;;;;;;;5.45;4.60;;;;;;;15.79;59.22;98714.22;2617238;54;20023;-65
2022/06/21 05:52:33;;;;;;;7.47;4.80;;;;;;;16.00;59.00;98720.84;2617511;54;20034;-66
2022/06/21 05:55:07;;;;;;;7.70;4.30;;;;;;;16.11;58.46;98728.06;2618919;54;20526;-65
2022/06/21 05:57:45;;;;;;;5.93;4.10;;;;;;;16.23;57.95;98728.91;2619435;54;20030;-63
2022/06/21 06:00:27;;;;;;;5.82;4.28;;;;;;;16.27;57.79;98743.41;2619444;54;20030;-64
2022/06/21 06:03:04;;;;;;;7.47;4.30;;;;;;;16.40;57.49;98754.88;2618886;54;20023;-65
2022/06/21 06:05:35;;;;;;;4.28;3.88;;;;;;;16.47;57.11;98744.91;2618692;47;20026;-63
2022/06/21 06:08:11;;;;;;;9.82;4.57;;;;;;;16.55;57.51;98745.38;2619382;39;20445;-64
2022/06/21 06:10:44;;;;;;;7.60;4.30;;;;;;;16.64;57.47;98732.50;2618862;54;20034;-65
2022/06/21 06:13:18;;;;;;;8.82;5.60;;;;;;;16.76;57.35;98735.19;2619091;39;20414;-67
2022/06/21 06:15:52;;;;;;;6.32;5.55;;;;;;;16.91;57.10;98738.19;2618724;54;20558;-64
2022/06/21 06:18:25;;;;;;;8.95;5.55;;;;;;;16.99;57.11;98737.81;2618182;54;20064;-64
2022/06/21 06:21:00;;;;;;;7.60;5.65;;;;;;;17.22;56.95;98755.63;2619062;54;20082;-63
2022/06/21 06:23:39;;;;;;;7.68;5.32;;;;;;;17.38;56.07;98762.09;2619226;39;20403;-64
2022/06/21 06:26:14;;;;;;;6.93;5.30;;;;;;;17.42;55.69;98776.59;2619130;54;20034;-64
2022/06/21 06:28:49;;;;;;;8.38;5.13;;;;;;;17.56;55.27;98790.50;2618417;47;20027;-64
2022/06/21 06:31:23;;;;;;;7.13;4.72;;;;;;;17.57;54.95;98784.91;2619035;54;20038;-65
2022/06/21 06:33:56;;;;;;;5.90;4.13;;;;;;;17.67;54.73;98792.31;2620904;54;20561;-63
2022/06/21 06:36:29;;;;;;;7.72;4.68;;;;;;;17.82;54.35;98799.84;2620351;54;20026;-67
2022/06/21 06:39:02;;;;;;;6.32;3.38;;;;;;;18.05;53.72;98802.41;2619607;54;20038;-63
2022/06/21 06:41:36;;;;;;;7.88;4.00;;;;;;;18.30;52.98;98809.25;2618546;46;20079;-65
2022/06/21 06:44:12;;;;;;;4.68;3.40;;;;;;;18.31;51.93;98811.66;2620711;39;20398;-64
2022/06/21 06:46:46;;;;;;;6.03;3.25;;;;;;;18.24;52.74;98805.66;2619224;54;20038;-64
2022/06/21 06:49:21;;;;;;;4.97;3.25;;;;;;;18.29;52.32;98796.94;2619002;54;20041;-64
2022/06/21 06:52:03;;;;;;;5.45;3.80;;;;;;;18.29;52.14;98803.09;2619044;54;20664;-66
2022/06/21 06:54:44;;;;;;;7.85;3.53;;;;;;;18.37;51.80;98790.34;2618183;54;20045;-65
2022/06/21 06:57:21;;;;;;;3.78;2.92;;;;;;;18.36;50.87;98765.44;2619190;54;20035;-65
2022/06/21 06:59:51;;;;;;;5.32;3.22;;;;;;;18.44;50.90;98746.28;2618833;54;20035;-65
2022/06/21 07:02:26;;;;;;;6.30;3.33;;;;;;;18.67;50.88;98717.72;2618514;54;20022;-64
2022/06/21 07:05:06;;;;;;;4.43;2.83;;;;;;;18.81;49.53;98682.31;2619007;54;20057;-64
2022/06/21 07:07:45;;;;;;;4.13;2.28;;;;;;;18.74;48.37;98632.72;2619750;39;20452;-64
2022/06/21 07:10:22;;;;;;;4.38;2.63;;;;;;;18.52;49.04;98597.84;2619257;54;20054;-65
2022/06/21 07:12:52;;;;;;;4.65;2.90;;;;;;;18.29;49.42;98602.41;2618975;54;20521;-65
2022/06/21 07:15:30;;;;;;;5.68;2.90;;;;;;;18.10;50.63;98590.34;2619962;54;20034;-64
2022/06/21 07:18:00;;;;;;;7.10;3.33;;;;;;;17.95;52.27;98603.50;2618927;47;20035;-65
2022/06/21 07:20:34;;;;;;;5.93;3.45;;;;;;;17.90;52.36;98609.59;2618640;47;20029;-65
2022/06/21 07:23:04;;;;;;;5.50;3.45;;;;;;;17.89;52.26;98605.31;2619360;54;20034;-64
2022/06/21 07:25:41;;;;;;;4.93;2.75;;;;;;;17.96;51.37;98608.63;2620068;54;20038;-64
2022/06/21 07:28:16;;;;;;;7.45;3.70;;;;;;;17.97;51.15;98614.78;2621627;54;20023;-65
2022/06/21 07:30:51;;;;;;;6.55;3.05;;;;;;;17.99;52.35;98624.16;2622090;54;20030;-65
2022/06/21 07:33:27;;;;;;;5.47;3.25;;;;;;;18.23;50.79;98614.06;2621763;54;20022;-65
2022/06/21 07:36:02;;;;;;;4.30;2.78;;;;;;;18.49;49.77;98601.03;2621963;54;20034;-65
2022/06/21 07:38:39;;;;;;;6.55;2.78;;;;;;;18.62;48.83;98600.66;2621982;54;20038;-66
2022/06/21 07:41:15;;;;;;;7.20;2.85;;;;;;;18.85;47.85;98594.25;2620920;47;20058;-66
2022/06/21 07:43:47;;;;;;;4.43;2.05;;;;;;;18.81;46.69;98588.59;2619051;54;20038;-66
2022/06/21 07:46:21;;;;;;;4.38;2.50;;;;;;;18.87;47.00;98604.72;2620411;54;20546;-65
2022/06/21 07:48:56;;;;;;;5.78;2.55;;;;;;;18.99;47.19;98594.69;2618383;54;20030;-65
2022/06/21 07:51:31;;;;;;;4.82;2.47;;;;;;;19.10;46.68;98580.31;2618508;54;20034;-64
2022/06/21 07:54:04;;;;;;;4.65;2.90;;;;;;;19.21;46.39;98582.03;2617856;51;20038;-64
2022/06/21 07:56:41;;;;;;;3.10;2.30;;;;;;;19.33;46.04;98581.06;2618356;54;20030;-65
2022/06/21 07:59:18;;;;;;;4.18;2.38;;;;;;;19.34;45.62;98585.34;2618479;54;20023;-65
2022/06/21 08:07:29;;;;;;;5.80;2.40;;;;;;;19.62;44.41;98598.50;2621062;54;20031;-66
2022/06/21 08:10:03;;;;;;;4.53;2.30;;;;;;;19.69;42.72;98607.13;2618888;54;20031;-66
2022/06/21 08:12:36;;;;;;;4.28;2.63;;;;;;;19.75;41.72;98618.69;2617774;47;20033;-64
2022/06/21 09:49:29;;;;;;;6.50;2.35;;;;;;;23.01;36.54;98604.91;2617142;47;20034;-65
2022/06/21 09:52:08;;;;;;;5.40;2.03;;;;;;;22.93;36.63;98608.97;2617302;54;20030;-67
2022/06/21 09:54:40;;;;;;;4.70;2.40;;;;;;;22.85;36.66;98608.72;2618062;54;20043;-65
2022/06/21 09:57:26;;;;;;;4.40;1.98;;;;;;;22.70;37.32;98610.44;2617563;47;20034;-65
2022/06/21 10:00:06;;;;;;;3.60;2.17;;;;;;;22.72;37.47;98607.44;2618080;54;20522;-65
2022/06/21 10:02:55;;;;;;;2.95;2.13;;;;;;;22.74;37.62;98594.53;2617866;54;20637;-66
2022/06/21 10:05:34;;;;;;;3.88;1.90;;;;;;;22.77;37.96;98603.94;2618140;54;20027;-64
2022/06/21 10:08:20;;;;;;;2.97;1.98;;;;;;;22.86;37.91;98596.88;2618180;54;20053;-65
2022/06/21 10:11:01;;;;;;;3.60;1.85;;;;;;;22.78;38.39;98587.50;2618188;54;20047;-65
2022/06/21 10:13:52;;;;;;;3.88;1.98;;;;;;;22.87;37.65;98579.63;2618118;54;20034;-65
2022/06/21 10:16:40;;;;;;;3.42;2.40;;;;;;;22.84;37.83;98583.69;2617606;47;20030;-65
2022/06/21 10:19:26;;;;;;;4.82;2.17;;;;;;;22.80;37.46;98562.97;2617455;46;20065;-65
2022/06/21 10:22:11;;;;;;;4.45;2.00;;;;;;;22.90;37.88;98571.84;2618071;54;20038;-66
2022/06/21 10:25:09;;;;;;;3.55;1.90;;;;;;;22.94;37.90;98558.56;2618154;54;20033;-65
2022/06/21 10:28:05;;;;;;;5.40;2.40;;;;;;;22.99;37.74;98562.06;2618291;54;20034;-67
2022/06/21 10:31:04;;;;;;;3.47;2.13;;;;;;;22.94;37.46;98545.94;2618312;54;20526;-65
2022/06/21 10:33:57;;;;;;;3.83;2.35;;;;;;;23.09;37.16;98546.91;2619429;39;20404;-64
2022/06/21 10:36:43;;;;;;;4.55;2.40;;;;;;;23.39;36.66;98562.88;2621774;54;20030;-65
2022/06/21 10:39:30;;;;;;;6.00;2.40;;;;;;;23.43;36.73;98550.44;2617442;47;20538;-64
2022/06/21 10:45:11;;;;;;;2.00;1.60;;;;;;;23.70;35.76;98549.13;2619194;39;20546;-67
2022/06/21 10:47:54;;;;;;;4.00;2.00;;;;;;;23.82;35.31;98546.03;2617996;47;20019;-65
2022/06/21 10:50:39;;;;;;;6.28;1.98;;;;;;;23.87;35.01;98540.59;2618127;39;20453;-66
2022/06/21 10:53:44;;;;;;;3.25;1.80;;;;;;;23.77;35.54;98540.72;2618362;54;20022;-65
2022/06/21 10:59:27;;;;;;;3.08;1.70;;;;;;;23.94;35.40;98543.75;2618616;54;20062;-65
2022/06/21 11:02:06;;;;;;;2.97;2.00;;;;;;;24.14;35.15;98538.13;2618479;54;20040;-65
2022/06/21 11:04:53;;;;;;;3.45;1.80;;;;;;;24.28;35.56;98534.72;2618656;54;20042;-65
2022/06/21 11:07:32;;;;;;;8.65;2.22;;;;;;;24.29;34.58;98530.94;2618140;54;20038;-68
2022/06/21 11:10:07;;;;;;;3.75;1.88;;;;;;;24.41;35.44;98523.25;2618227;54;20119;-66
2022/06/21 11:15:35;;;;;;;3.45;1.70;;;;;;;24.23;35.60;98512.09;2618191;54;20038;-68
2022/06/21 11:18:15;;;;;;;2.35;2.15;;;;;;;24.42;36.06;98514.06;2618337;54;20038;-66
2022/06/21 11:20:53;;;;;;;2.63;2.10;;;;;;;24.63;35.33;98499.19;2618553;39;20435;-68
2022/06/21 11:23:34;;;;;;;3.15;2.33;;;;;;;24.74;35.06;98496.31;2617465;54;20035;-65
2022/06/21 11:26:11;;;;;;;2.88;2.13;;;;;;;24.63;35.24;98495.69;2618312;54;20026;-65
2022/06/21 11:29:13;;;;;;;2.88;1.98;;;;;;;24.65;35.37;98491.56;2618929;31;20639;-64
2022/06/21 11:31:50;;;;;;;4.15;2.25;;;;;;;24.89;35.36;98491.50;2618247;54;20058;-64
2022/06/21 11:34:28;;;;;;;4.60;2.60;;;;;;;25.13;35.83;98482.50;2619021;54;20525;-65
2022/06/21 11:37:09;;;;;;;3.13;2.05;;;;;;;25.30;35.30;98473.84;2619076;54;20034;-66
2022/06/21 11:39:48;;;;;;;2.85;2.40;;;;;;;25.28;35.30;98463.34;2619381;54;20038;-65
2022/06/21 11:42:25;;;;;;;3.22;2.70;;;;;;;25.29;34.83;98461.44;2619742;39;20455;-66
2022/06/21 11:45:31;;;;;;;3.63;1.98;;;;;;;25.34;35.30;98454.00;2618524;54;20042;-65
2022/06/21 11:48:30;;;;;;;3.25;2.20;;;;;;;25.58;34.82;98448.44;2618791;39;20425;-65
2022/06/21 11:51:11;;;;;;;5.00;2.40;;;;;;;25.69;35.27;98447.16;2617977;54;20049;-66
2022/06/21 11:53:53;;;;;;;3.58;2.00;;;;;;;25.80;34.96;98431.56;2617858;54;20030;-65
2022/06/21 11:56:28;;;;;;;3.30;2.13;;;;;;;25.80;34.64;98436.13;2617976;54;20035;-65
2022/06/21 11:59:03;;;;;;;2.97;2.15;;;;;;;25.79;34.30;98435.34;2617902;54;20030;-67
2022/06/21 12:01:38;;;;;;;3.47;2.45;;;;;;;25.78;35.23;98436.44;2617977;54;20039;-65
2022/06/21 12:04:22;;;;;;;5.15;2.63;;;;;;;26.02;34.73;98430.03;2618423;31;20537;-67
2022/06/21 12:06:59;;;;;;;8.43;2.35;;;;;;;26.16;34.41;98414.53;2617942;54;20568;-66
2022/06/21 12:09:40;;;;;;;3.88;2.33;;;;;;;26.31;34.06;98405.28;2618023;54;20038;-65
2022/06/21 12:12:27;;;;;;;3.55;2.40;;;;;;;26.09;34.54;98406.03;2617682;54;20813;-65
2022/06/21 12:15:19;;;;;;;3.25;2.33;;;;;;;25.81;35.23;98403.38;2617856;54;20034;-64
2022/06/21 12:17:55;;;;;;;5.82;2.63;;;;;;;25.75;35.14;98406.44;2619393;39;20450;-68
2022/06/21 12:20:32;;;;;;;4.10;2.45;;;;;;;25.92;35.20;98402.06;2622854;54;20035;-68
2022/06/21 12:23:11;;;;;;;5.03;2.83;;;;;;;26.07;35.27;98392.78;2622377;54;20030;-66
2022/06/21 12:25:41;;;;;;;9.88;2.72;;;;;;;26.19;35.04;98381.44;2623726;54;20038;-68
2022/06/21 12:28:15;;;;;;;4.22;2.60;;;;;;;26.32;35.23;98383.28;2623345;54;20578;-67
2022/06/21 12:31:04;;;;;;;5.03;2.70;;;;;;;26.38;35.06;98392.13;2620331;54;20039;-66
2022/06/21 12:33:37;;;;;;;4.53;2.63;;;;;;;26.47;35.19;98384.09;2617199;54;20026;-64
2022/06/21 12:36:36;;;;;;;4.60;2.75;;;;;;;26.62;34.30;98379.13;2617677;54;20046;-65
2022/06/21 12:39:13;;;;;;;5.40;3.05;;;;;;;26.49;34.91;98376.44;2617760;54;20037;-65
2022/06/21 12:41:54;;;;;;;4.85;2.78;;;;;;;26.54;34.84;98376.34;2617904;54;20030;-66
2022/06/21 12:44:35;;;;;;;4.32;2.67;;;;;;;26.55;35.10;98375.22;2617477;47;20023;-65
2022/06/21 12:47:19;;;;;;;3.65;2.45;;;;;;;26.50;34.82;98372.66;2617864;54;20057;-66
2022/06/21 12:50:19;;;;;;;2.47;2.28;;;;;;;26.47;35.48;98375.97;2617784;54;20058;-68
2022/06/21 12:53:01;;;;;;;2.70;2.50;;;;;;;26.51;35.09;98382.38;2617914;54;20026;-65
2022/06/21 12:55:38;;;;;;;2.88;2.42;;;;;;;26.40;35.05;98371.72;2617896;47;20022;-63
2022/06/21 12:58:20;;;;;;;2.80;2.25;;;;;;;26.58;34.14;98383.56;2618785;54;20042;-66
2022/06/21 13:00:54;;;;;;;6.40;2.83;;;;;;;26.78;34.09;98390.38;2620446;54;20030;-66
2022/06/21 13:03:53;;;;;;;2.95;2.40;;;;;;;26.91;34.00;98388.72;2620958;39;20457;-66
2022/06/21 13:06:36;;;;;;;2.30;2.10;;;;;;;27.23;33.61;98397.69;2622460;39;20402;-66
2022/06/21 13:09:29;;;;;;;3.30;2.65;;;;;;;26.99;33.00;98381.75;2622960;54;20030;-65
2022/06/21 13:12:27;;;;;;;2.92;2.60;;;;;;;26.98;33.17;98402.63;2623557;54;20033;-66
2022/06/21 13:15:17;;;;;;;3.95;2.65;;;;;;;27.22;32.71;98385.22;2623751;54;20035;-66
2022/06/21 13:18:07;;;;;;;4.72;2.30;;;;;;;27.34;32.95;98391.66;2624399;54;20042;-65
2022/06/21 13:20:47;;;;;;;5.03;2.70;;;;;;;27.52;31.58;98384.41;2624544;54;20049;-65
2022/06/21 13:23:31;;;;;;;3.42;2.80;;;;;;;27.48;32.06;98385.34;2623931;39;20441;-66
2022/06/21 13:26:15;;;;;;;4.20;2.17;;;;;;;27.37;31.71;98372.06;2619863;47;20030;-65
2022/06/21 13:28:53;;;;;;;;;;;;;;;27.28;31.73;98376.66;2621117;54;20042;-66
2022/06/21 13:31:28;;;;;;;2.70;2.13;;;;;;;27.16;31.81;98368.28;2622218;39;20373;-66
2022/06/21 13:34:19;;;;;;;5.32;2.53;;;;;;;27.23;31.99;98365.94;2624046;54;20026;-65
2022/06/21 13:36:52;;;;;;;4.72;2.63;;;;;;;27.28;32.23;98362.28;2621750;39;20407;-65
2022/06/21 13:39:31;;;;;;;3.50;2.10;;;;;;;27.42;32.24;98368.41;2622367;47;20078;-66
2022/06/21 13:45:00;;;;;;;4.35;2.58;;;;;;;27.55;32.24;98359.34;2623998;54;20657;-67
2022/06/21 13:47:34;;;;;;;5.38;2.40;;;;;;;27.64;31.85;98345.81;2621081;47;20041;-65
2022/06/21 13:50:15;;;;;;;4.45;2.17;;;;;;;27.58;31.74;98347.84;2621854;54;20038;-65
2022/06/21 13:52:59;;;;;;;8.00;2.90;;;;;;;27.45;31.88;98346.06;2621652;54;20039;-67
2022/06/21 13:55:38;;;;;;;8.00;2.50;;;;;;;27.42;32.27;98336.63;2620030;47;20028;-65
2022/06/21 13:58:21;;;;;;;5.40;2.95;;;;;;;27.35;31.38;98338.19;2620287;54;20030;-65
2022/06/21 14:00:59;;;;;;;3.65;2.50;;;;;;;27.27;32.15;98333.53;2622204;54;20061;-66
2022/06/21 14:03:39;;;;;;;7.07;2.97;;;;;;;27.53;32.12;98323.56;2622284;39;20466;-69
2022/06/21 14:06:17;;;;;;;3.60;2.10;;;;;;;27.79;31.38;98337.22;2621975;54;20022;-65
2022/06/21 14:08:51;;;;;;;4.13;2.28;;;;;;;27.71;31.41;98332.53;2622824;54;20030;-65
2022/06/21 14:11:29;;;;;;;4.78;2.40;;;;;;;27.47;31.57;98343.81;2621699;47;20038;-66
2022/06/21 14:14:10;;;;;;;3.90;2.55;;;;;;;27.52;32.00;98340.19;2620842;54;20030;-64